Time;durP1;ratioP1;P1;durP2;ratioP2;P2;SDS_P1;SDS_P2;PMS_P1;PMS_P2;Temp;Humidity;BMP_temperature;BMP_pressure;BME280_temperature;BME280_humidity;BME280_pressure;Samples;Min_cycle;Max_cycle;Signal;HPM_P1;HPM_P2
2023/09/30 00:00:58;;;;;;;22.55;8.73;;;;;;;12.70;100.00;102341.00;5058454;28;20025;-71
2023/09/30 00:03:33;;;;;;;21.73;8.88;;;;;;;12.67;100.00;102344.75;5057077;28;20036;-72
2023/09/30 00:05:59;;;;;;;21.98;9.13;;;;;;;12.70;100.00;102349.09;5062682;28;20480;-72
2023/09/30 00:08:24;;;;;;;25.17;8.05;;;;;;;12.70;100.00;102341.00;5053261;28;20043;-72
2023/09/30 00:10:50;;;;;;;23.02;9.25;;;;;;;12.71;100.00;102348.16;5049994;28;20469;-72
2023/09/30 00:13:16;;;;;;;23.10;8.63;;;;;;;12.69;100.00;102344.66;5047554;28;20021;-72
2023/09/30 00:15:41;;;;;;;19.63;8.60;;;;;;;12.69;100.00;102350.91;5048746;28;20116;-73
2023/09/30 00:18:07;;;;;;;21.25;8.75;;;;;;;12.72;100.00;102344.47;5057030;28;20107;-72
2023/09/30 00:20:32;;;;;;;21.95;8.55;;;;;;;12.74;100.00;102353.38;5055669;28;20520;-71
2023/09/30 00:22:57;;;;;;;22.08;9.13;;;;;;;12.73;100.00;102348.91;5054754;28;20028;-72
2023/09/30 00:25:23;;;;;;;25.10;9.52;;;;;;;12.74;100.00;102354.22;5049478;28;20059;-75
2023/09/30 00:27:48;;;;;;;23.00;9.95;;;;;;;12.77;100.00;102353.19;5058866;28;20143;-74
2023/09/30 00:30:14;;;;;;;21.73;8.75;;;;;;;12.75;100.00;102336.19;5059057;28;20021;-74
2023/09/30 00:32:39;;;;;;;22.80;9.80;;;;;;;12.76;100.00;102335.25;5055116;28;20024;-75
2023/09/30 00:35:11;;;;;;;23.90;9.95;;;;;;;12.76;100.00;102335.25;5059951;28;20039;-74
2023/09/30 00:37:38;;;;;;;22.77;8.98;;;;;;;12.72;100.00;102364.25;5058635;28;20017;-74
2023/09/30 00:40:05;;;;;;;23.25;9.40;;;;;;;12.76;100.00;102378.41;5059258;28;20024;-74
2023/09/30 00:42:30;;;;;;;21.45;9.43;;;;;;;12.72;100.00;102374.16;5060356;28;20476;-74
2023/09/30 00:44:55;;;;;;;22.58;8.50;;;;;;;12.70;100.00;102368.84;5052162;28;20072;-74
2023/09/30 00:47:21;;;;;;;21.55;9.73;;;;;;;12.73;100.00;102365.09;5053077;28;20037;-74
2023/09/30 00:49:46;;;;;;;23.90;9.75;;;;;;;12.70;100.00;102355.34;5046967;28;20025;-74
2023/09/30 00:52:12;;;;;;;24.77;9.77;;;;;;;12.69;100.00;102350.91;5057839;28;20488;-74
2023/09/30 00:54:39;;;;;;;23.65;10.15;;;;;;;12.69;100.00;102352.75;5054343;28;20024;-74
2023/09/30 00:57:04;;;;;;;22.48;10.15;;;;;;;12.71;100.00;102358.94;5049596;28;20404;-74
2023/09/30 00:59:32;;;;;;;23.08;9.27;;;;;;;12.69;100.00;102367.09;5064329;28;20021;-74
2023/09/30 01:02:00;;;;;;;21.25;9.68;;;;;;;12.69;100.00;102361.69;5052430;28;20090;-74
2023/09/30 01:04:27;;;;;;;23.92;8.60;;;;;;;12.70;100.00;102370.69;5058069;28;20025;-74
2023/09/30 01:06:52;;;;;;;20.80;9.43;;;;;;;12.68;100.00;102365.38;5058375;28;20480;-74
2023/09/30 01:09:19;;;;;;;22.15;9.63;;;;;;;12.72;100.00;102366.94;5063985;28;20059;-75
2023/09/30 01:11:44;;;;;;;22.15;9.55;;;;;;;12.68;100.00;102364.50;5048378;28;20029;-74
2023/09/30 01:14:38;;;;;;;24.27;9.57;;;;;;;12.71;100.00;102373.28;5053937;28;20020;-74
2023/09/30 01:17:04;;;;;;;19.73;8.43;;;;;;;12.64;100.00;102371.03;5054212;28;20438;-74
2023/09/30 01:19:29;;;;;;;22.75;9.45;;;;;;;12.57;100.00;102382.16;5053520;28;20025;-75
2023/09/30 01:21:58;;;;;;;24.48;9.15;;;;;;;12.55;100.00;102394.88;5064037;28;20052;-74
2023/09/30 01:24:24;;;;;;;23.08;9.48;;;;;;;12.57;100.00;102394.78;5055896;28;20447;-74
2023/09/30 01:26:50;;;;;;;21.60;8.60;;;;;;;12.48;100.00;102401.56;5041460;28;20027;-74
2023/09/30 01:29:17;;;;;;;20.08;8.20;;;;;;;12.44;100.00;102405.41;5060914;28;20032;-75
2023/09/30 01:31:42;;;;;;;23.50;9.88;;;;;;;12.38;100.00;102409.31;5052474;28;20384;-74
2023/09/30 01:34:08;;;;;;;21.30;8.63;;;;;;;12.37;100.00;102404.00;5054260;28;20037;-71
2023/09/30 01:36:33;;;;;;;22.27;9.13;;;;;;;12.32;100.00;102395.31;5060233;28;20021;-71
2023/09/30 01:38:58;;;;;;;22.70;9.27;;;;;;;12.30;100.00;102399.91;5060081;28;20334;-72
2023/09/30 01:41:24;;;;;;;22.70;9.82;;;;;;;12.28;100.00;102393.75;5064770;28;20082;-72
2023/09/30 01:43:49;;;;;;;24.48;10.32;;;;;;;12.24;100.00;102393.91;5059812;28;20535;-71
2023/09/30 01:46:15;;;;;;;23.77;9.30;;;;;;;12.20;100.00;102381.56;5058956;28;20468;-72
2023/09/30 01:48:40;;;;;;;27.08;9.85;;;;;;;12.14;100.00;102378.31;5063881;28;20045;-71
2023/09/30 01:51:06;;;;;;;21.55;9.40;;;;;;;12.15;100.00;102377.38;5059367;28;20103;-72
2023/09/30 01:53:32;;;;;;;22.52;9.45;;;;;;;12.09;100.00;102381.28;5062923;28;20029;-71
2023/09/30 01:55:57;;;;;;;22.50;8.95;;;;;;;12.07;100.00;102381.34;5044444;28;20255;-72
2023/09/30 01:58:22;;;;;;;21.33;8.90;;;;;;;12.04;100.00;102380.66;5063863;28;20557;-71
2023/09/30 02:00:48;;;;;;;23.38;9.27;;;;;;;12.00;100.00;102389.88;5057918;28;20485;-72
2023/09/30 02:03:13;;;;;;;21.42;9.38;;;;;;;12.02;100.00;102393.34;5067695;28;20068;-71
2023/09/30 02:05:39;;;;;;;22.73;10.00;;;;;;;11.99;100.00;102382.72;5044141;28;20378;-71
2023/09/30 02:08:05;;;;;;;22.33;9.85;;;;;;;11.97;100.00;102382.81;5056925;28;20037;-71
2023/09/30 02:10:31;;;;;;;22.55;9.43;;;;;;;12.02;100.00;102398.72;5061307;28;20493;-72
2023/09/30 02:12:56;;;;;;;23.38;9.63;;;;;;;12.03;100.00;102387.00;5055320;28;20032;-72
2023/09/30 02:15:22;;;;;;;23.75;10.07;;;;;;;12.05;100.00;102394.06;5062189;28;20028;-71
2023/09/30 02:17:48;;;;;;;22.25;9.73;;;;;;;12.08;100.00;102395.72;5067381;28;20037;-71
2023/09/30 02:20:18;;;;;;;23.15;9.85;;;;;;;12.04;100.00;102403.09;5052723;28;20451;-71
2023/09/30 02:22:44;;;;;;;24.30;10.23;;;;;;;12.12;100.00;102402.66;5056762;28;20418;-71
2023/09/30 02:25:09;;;;;;;22.02;9.45;;;;;;;12.12;100.00;102401.81;5059149;28;20121;-71
2023/09/30 02:27:35;;;;;;;23.50;9.98;;;;;;;12.04;100.00;102392.31;5060828;28;20068;-71
2023/09/30 02:30:00;;;;;;;23.92;10.30;;;;;;;11.99;100.00;102382.72;5056790;28;20036;-72
2023/09/30 02:32:26;;;;;;;23.52;9.55;;;;;;;12.03;100.00;102378.91;5058433;28;20036;-71
2023/09/30 02:34:51;;;;;;;22.13;9.38;;;;;;;12.02;100.00;102383.44;5062566;28;20032;-71
2023/09/30 02:37:18;;;;;;;23.27;10.10;;;;;;;12.05;100.00;102385.13;5057828;28;20131;-72
2023/09/30 02:39:44;;;;;;;24.13;10.25;;;;;;;12.03;100.00;102387.88;5059383;28;20159;-71
2023/09/30 02:42:10;;;;;;;24.65;9.93;;;;;;;12.01;100.00;102392.47;5060183;28;20346;-71
2023/09/30 02:44:35;;;;;;;25.02;9.93;;;;;;;12.00;100.00;102388.03;5058855;28;20027;-74
2023/09/30 02:47:00;;;;;;;22.42;9.55;;;;;;;12.03;100.00;102378.91;5043323;28;20069;-74
2023/09/30 02:49:26;;;;;;;23.15;9.90;;;;;;;11.99;100.00;102374.66;5058852;28;20020;-74
2023/09/30 02:51:54;;;;;;;20.30;9.65;;;;;;;11.98;100.00;102376.47;5057026;28;20113;-74
2023/09/30 02:54:20;;;;;;;22.83;9.27;;;;;;;12.00;100.00;102369.19;5051977;28;20032;-75
2023/09/30 02:56:46;;;;;;;22.85;9.65;;;;;;;11.97;100.00;102377.44;5049675;28;20032;-74
2023/09/30 02:59:12;;;;;;;22.38;9.82;;;;;;;11.93;100.00;102378.53;5066036;28;20491;-74
2023/09/30 03:01:38;;;;;;;25.30;11.13;;;;;;;11.97;100.00;102368.50;5049414;28;20560;-74
2023/09/30 03:04:06;;;;;;;23.63;9.77;;;;;;;11.98;100.00;102389.09;5061009;28;20060;-74
2023/09/30 03:06:33;;;;;;;28.33;10.47;;;;;;;11.93;100.00;102389.31;5042803;28;20159;-75
2023/09/30 03:08:58;;;;;;;22.00;9.65;;;;;;;11.97;100.00;102396.28;5048935;28;20033;-74
2023/09/30 03:11:23;;;;;;;24.05;10.90;;;;;;;11.98;100.00;102386.41;5051394;28;20024;-74
2023/09/30 03:13:50;;;;;;;23.05;11.07;;;;;;;12.00;100.00;102389.88;5049081;28;20109;-75
2023/09/30 03:16:16;;;;;;;21.58;9.15;;;;;;;12.00;100.00;102387.19;5047986;28;20468;-75
2023/09/30 03:18:44;;;;;;;22.88;9.57;;;;;;;12.02;100.00;102398.72;5045921;28;20029;-74
2023/09/30 03:21:14;;;;;;;22.05;9.30;;;;;;;12.05;100.00;102394.06;5058256;28;20029;-74
2023/09/30 03:23:40;;;;;;;21.17;9.77;;;;;;;12.06;100.00;102384.13;5065647;28;20463;-74
2023/09/30 03:26:09;;;;;;;22.23;10.02;;;;;;;12.05;100.00;102372.50;5061026;28;20431;-74
2023/09/30 03:28:35;;;;;;;;;;;;;;;12.11;100.00;102365.91;5058704;28;20025;-75
2023/09/30 03:31:00;;;;;;;23.95;10.35;;;;;;;12.11;100.00;102354.22;5055109;28;19912;-74
2023/09/30 03:33:26;;;;;;;23.73;9.98;;;;;;;12.11;100.00;102365.91;5060540;28;20020;-74
2023/09/30 03:35:52;;;;;;;23.08;9.52;;;;;;;12.11;100.00;102365.00;5057076;28;20021;-75
2023/09/30 03:38:19;;;;;;;24.88;10.27;;;;;;;12.11;100.00;102362.31;5060708;28;20472;-74
2023/09/30 03:40:47;;;;;;;24.58;11.00;;;;;;;12.15;100.00;102362.09;5053201;28;20083;-74
2023/09/30 03:43:16;;;;;;;22.30;10.32;;;;;;;12.07;100.00;102358.94;5058201;28;20028;-75
2023/09/30 03:45:41;;;;;;;27.38;9.93;;;;;;;12.06;100.00;102366.16;5054574;28;20040;-74
2023/09/30 03:48:07;;;;;;;21.85;10.13;;;;;;;12.07;100.00;102375.09;5050249;28;20041;-74
2023/09/30 03:50:33;;;;;;;24.23;10.60;;;;;;;12.02;100.00;102380.75;5053169;28;20033;-74
2023/09/30 03:53:07;;;;;;;22.25;9.27;;;;;;;12.04;100.00;102383.38;5059459;28;20032;-74
2023/09/30 03:55:33;;;;;;;22.58;10.07;;;;;;;12.02;100.00;102377.16;5048939;28;20028;-71
2023/09/30 03:57:59;;;;;;;23.35;10.52;;;;;;;12.07;100.00;102370.56;5056500;28;20028;-72
2023/09/30 04:00:24;;;;;;;22.75;10.02;;;;;;;12.05;100.00;102355.47;5059784;28;20485;-71
2023/09/30 04:02:53;;;;;;;25.17;11.30;;;;;;;12.03;100.00;102365.44;5057831;28;20111;-72
2023/09/30 04:05:19;;;;;;;24.63;10.38;;;;;;;12.03;100.00;102370.84;5051468;28;20034;-72
2023/09/30 04:07:44;;;;;;;22.52;11.05;;;;;;;12.03;100.00;102371.69;5063219;28;20032;-72
2023/09/30 04:10:10;;;;;;;22.35;10.60;;;;;;;12.03;100.00;102370.84;5062496;28;20111;-71
2023/09/30 04:12:35;;;;;;;23.70;10.30;;;;;;;12.01;100.00;102375.44;5046645;28;20021;-72
2023/09/30 04:15:04;;;;;;;22.88;10.05;;;;;;;11.95;100.00;102368.56;5053529;28;20410;-71
2023/09/30 04:17:30;;;;;;;25.17;9.85;;;;;;;11.95;100.00;102373.06;5051798;28;20029;-71
2023/09/30 04:19:56;;;;;;;22.02;10.45;;;;;;;11.94;100.00;102382.13;5063940;28;20095;-71
2023/09/30 04:22:21;;;;;;;24.10;10.63;;;;;;;11.88;100.00;102370.69;5054286;28;20116;-69
2023/09/30 04:24:49;;;;;;;23.20;9.98;;;;;;;11.88;100.00;102368.00;5061824;28;20051;-69
2023/09/30 04:27:14;;;;;;;24.40;10.68;;;;;;;11.88;100.00;102369.81;5060566;28;20024;-70
2023/09/30 04:29:41;;;;;;;25.58;11.32;;;;;;;11.85;100.00;102376.25;5052989;28;20800;-70
2023/09/30 04:32:07;;;;;;;24.42;11.52;;;;;;;11.86;100.00;102374.44;5057697;28;20020;-69
2023/09/30 04:34:32;;;;;;;20.83;9.35;;;;;;;11.85;100.00;102370.00;5048220;28;20444;-69
2023/09/30 04:36:57;;;;;;;23.67;11.43;;;;;;;11.82;100.00;102373.72;5058657;28;20021;-70
2023/09/30 04:39:23;;;;;;;23.90;10.57;;;;;;;11.78;100.00;102377.53;5060006;28;20028;-69
2023/09/30 04:41:48;;;;;;;24.48;10.20;;;;;;;11.78;100.00;102379.38;5062578;28;20037;-69
2023/09/30 04:44:14;;;;;;;23.00;11.05;;;;;;;11.76;100.00;102379.44;5054660;28;20032;-69
2023/09/30 04:46:40;;;;;;;22.73;10.90;;;;;;;11.77;100.00;102383.88;5054116;28;20032;-69
2023/09/30 04:49:07;;;;;;;27.67;11.07;;;;;;;11.74;100.00;102388.56;5062768;28;20032;-69
2023/09/30 04:51:33;;;;;;;23.92;10.38;;;;;;;11.70;100.00;102377.94;5052411;28;20028;-70
2023/09/30 04:53:59;;;;;;;23.90;11.00;;;;;;;11.71;100.00;102373.41;5045391;28;20064;-71
2023/09/30 04:56:25;;;;;;;22.30;9.52;;;;;;;11.68;100.00;102389.75;5047990;28;20166;-69
2023/09/30 04:58:50;;;;;;;22.92;10.52;;;;;;;11.68;100.00;102390.63;5054817;28;20532;-69
2023/09/30 05:01:18;;;;;;;24.23;10.52;;;;;;;11.63;100.00;102399.91;5048503;28;20098;-69
2023/09/30 05:03:44;;;;;;;22.40;9.77;;;;;;;11.61;100.00;102405.38;5063820;28;20046;-70
2023/09/30 05:06:09;;;;;;;23.67;10.25;;;;;;;11.64;100.00;102396.25;5064005;28;20046;-69
2023/09/30 05:08:35;;;;;;;23.27;10.18;;;;;;;11.62;100.00;102395.47;5062162;28;20398;-69
2023/09/30 05:11:00;;;;;;;22.40;10.55;;;;;;;11.57;100.00;102398.41;5057157;28;20029;-69
2023/09/30 05:13:26;;;;;;;23.92;9.88;;;;;;;11.57;100.00;102402.91;5067851;28;20025;-69
2023/09/30 05:15:51;;;;;;;23.13;10.52;;;;;;;11.57;100.00;102405.59;5048828;28;20508;-69
2023/09/30 05:18:17;;;;;;;23.23;10.10;;;;;;;11.55;100.00;102402.97;5036395;28;20136;-70
2023/09/30 05:20:43;;;;;;;26.45;11.07;;;;;;;11.55;100.00;102402.97;5061501;28;20036;-70
2023/09/30 05:23:12;;;;;;;23.17;10.77;;;;;;;11.51;100.00;102399.59;5062011;28;20031;-70
2023/09/30 05:25:42;;;;;;;23.80;9.95;;;;;;;11.51;100.00;102393.34;5063636;28;20031;-70
2023/09/30 05:28:07;;;;;;;23.35;9.95;;;;;;;11.52;100.00;102405.84;5057256;28;20033;-69
2023/09/30 05:30:33;;;;;;;23.10;9.43;;;;;;;11.51;100.00;102404.97;5059672;28;20325;-69
2023/09/30 05:32:59;;;;;;;26.73;11.63;;;;;;;11.51;100.00;102410.38;5060840;28;20391;-69
2023/09/30 05:35:25;;;;;;;23.75;10.95;;;;;;;11.59;100.00;102411.78;5052841;28;20174;-70
2023/09/30 05:37:53;;;;;;;29.40;10.60;;;;;;;11.57;100.00;102410.97;5055995;28;20063;-69
2023/09/30 05:40:24;;;;;;;25.17;11.10;;;;;;;11.59;100.00;102412.66;5066614;28;20029;-69
2023/09/30 05:42:51;;;;;;;26.85;11.85;;;;;;;11.64;100.00;102407.91;5063003;28;20487;-69
2023/09/30 05:45:17;;;;;;;24.00;11.55;;;;;;;11.67;100.00;102412.22;5050639;28;20547;-70
2023/09/30 05:47:44;;;;;;;22.98;11.15;;;;;;;11.71;100.00;102412.03;5062988;28;20083;-69
2023/09/30 05:50:09;;;;;;;23.98;10.32;;;;;;;11.75;100.00;102430.72;5059206;28;20027;-70
2023/09/30 05:52:35;;;;;;;28.05;11.48;;;;;;;11.79;100.00;102419.69;5060185;28;20033;-68
2023/09/30 05:55:02;;;;;;;26.02;11.27;;;;;;;11.80;100.00;102407.97;5056966;28;20037;-69
2023/09/30 05:57:28;;;;;;;22.30;10.73;;;;;;;11.88;100.00;102421.88;5057708;28;20024;-71
2023/09/30 05:59:54;;;;;;;26.33;11.85;;;;;;;11.93;100.00;102420.75;5066732;28;20040;-69
2023/09/30 06:02:19;;;;;;;24.40;11.07;;;;;;;11.92;100.00;102421.72;5057213;28;20028;-70
2023/09/30 06:04:46;;;;;;;26.60;12.40;;;;;;;11.92;100.00;102425.28;5057497;28;20056;-69
2023/09/30 06:07:11;;;;;;;24.75;11.63;;;;;;;11.97;100.00;102425.94;5046644;28;20081;-69
2023/09/30 06:09:36;;;;;;;23.40;10.40;;;;;;;11.96;100.00;102420.63;5046388;28;20108;-69
2023/09/30 06:12:06;;;;;;;24.45;10.88;;;;;;;11.97;100.00;102427.75;5059289;28;20063;-69
2023/09/30 06:14:32;;;;;;;25.35;11.02;;;;;;;11.98;100.00;102422.28;5055260;28;20036;-69
2023/09/30 06:16:58;;;;;;;25.27;10.77;;;;;;;12.03;100.00;102422.91;5040551;28;20029;-69
2023/09/30 06:19:25;;;;;;;23.63;10.43;;;;;;;12.04;100.00;102424.66;5061427;28;20028;-69
2023/09/30 06:21:51;;;;;;;25.70;12.18;;;;;;;12.03;100.00;102417.50;5055416;28;20033;-69
2023/09/30 06:24:16;;;;;;;27.42;10.48;;;;;;;12.03;100.00;102416.66;5056082;28;20400;-69
2023/09/30 06:26:42;;;;;;;27.13;11.55;;;;;;;12.05;100.00;102414.75;5056960;28;20086;-69
2023/09/30 06:29:07;;;;;;;27.50;11.50;;;;;;;12.07;100.00;102418.22;5053930;28;20090;-69
2023/09/30 06:31:33;;;;;;;25.77;11.07;;;;;;;12.07;100.00;102420.94;5067934;28;20464;-69
2023/09/30 06:34:00;;;;;;;24.35;10.98;;;;;;;12.07;100.00;102420.94;5050335;28;20058;-70
2023/09/30 06:36:25;;;;;;;24.05;10.98;;;;;;;12.10;100.00;102423.44;5046535;28;20390;-71
2023/09/30 06:38:52;;;;;;;24.48;10.95;;;;;;;12.13;100.00;102423.28;5047280;28;20016;-69
2023/09/30 06:41:18;;;;;;;25.95;12.02;;;;;;;12.16;100.00;102415.03;5047478;28;20021;-69
2023/09/30 06:43:43;;;;;;;26.98;11.00;;;;;;;12.21;100.00;102418.34;5049963;28;20037;-69
2023/09/30 06:46:09;;;;;;;26.80;11.25;;;;;;;12.21;100.00;102426.44;5038313;28;20115;-69
2023/09/30 06:48:40;;;;;;;25.58;10.80;;;;;;;12.24;100.00;102420.88;5050923;28;20083;-69
2023/09/30 06:51:05;;;;;;;27.20;11.07;;;;;;;12.23;100.00;102435.28;5054123;28;20021;-69
2023/09/30 06:53:31;;;;;;;27.60;11.43;;;;;;;12.31;100.00;102440.25;5049484;28;20044;-69
2023/09/30 06:55:56;;;;;;;25.17;11.82;;;;;;;12.34;100.00;102444.63;5055839;28;20033;-69
2023/09/30 06:58:21;;;;;;;25.83;10.98;;;;;;;12.38;100.00;102449.75;5054814;28;20024;-70
2023/09/30 07:00:50;;;;;;;25.58;11.05;;;;;;;12.39;100.00;102456.03;5055826;28;20104;-69
2023/09/30 07:03:16;;;;;;;24.52;10.43;;;;;;;12.42;100.00;102458.56;5046072;28;20028;-69
2023/09/30 07:05:42;;;;;;;29.95;12.25;;;;;;;12.47;100.00;102461.84;5060511;28;20028;-70
2023/09/30 07:08:07;;;;;;;26.58;11.00;;;;;;;12.54;100.00;102468.66;5059476;28;20134;-69
2023/09/30 07:10:33;;;;;;;26.75;11.43;;;;;;;12.60;100.00;102470.13;5048536;28;20541;-69
2023/09/30 07:12:58;;;;;;;25.95;10.98;;;;;;;12.66;100.00;102477.00;5063907;28;20088;-70
2023/09/30 07:15:24;;;;;;;29.70;11.45;;;;;;;12.71;100.00;102472.25;5046300;28;20029;-69
2023/09/30 07:17:49;;;;;;;24.25;10.57;;;;;;;12.76;100.00;102476.41;5057885;28;20471;-69
2023/09/30 07:20:15;;;;;;;26.67;11.63;;;;;;;12.82;100.00;102474.31;5041362;28;20035;-69
2023/09/30 07:22:41;;;;;;;26.30;10.27;;;;;;;12.86;100.00;102484.00;5062654;28;20083;-69
2023/09/30 07:25:07;;;;;;;27.27;11.63;;;;;;;12.91;100.00;102487.28;5057266;28;20048;-69
2023/09/30 07:27:32;;;;;;;24.70;11.32;;;;;;;12.98;100.00;102498.59;5058584;28;20114;-69
2023/09/30 07:29:58;;;;;;;25.83;10.95;;;;;;;13.03;100.00;102510.00;5055414;28;20071;-70
2023/09/30 07:32:24;;;;;;;33.58;11.50;;;;;;;13.06;100.00;102515.22;5057522;28;20159;-69
2023/09/30 07:34:49;;;;;;;29.42;11.75;;;;;;;13.10;100.00;102516.78;5058954;28;20519;-70
2023/09/30 07:37:17;;;;;;;26.98;10.43;;;;;;;13.17;100.00;102523.56;5058587;28;20081;-70
2023/09/30 07:39:42;;;;;;;32.30;11.95;;;;;;;13.20;100.00;102528.78;5053761;28;20025;-70
2023/09/30 07:42:11;;;;;;;29.00;11.05;;;;;;;13.26;100.00;102533.84;5059229;28;20028;-69
2023/09/30 07:44:39;;;;;;;24.67;12.15;;;;;;;13.32;100.00;102529.91;5048492;28;20032;-69
2023/09/30 07:47:06;;;;;;;25.13;10.77;;;;;;;13.40;100.00;102524.13;5060990;28;20499;-69
2023/09/30 07:49:32;;;;;;;24.27;10.88;;;;;;;13.47;100.00;102517.41;5062479;28;20064;-69
2023/09/30 07:51:58;;;;;;;29.85;11.32;;;;;;;13.53;100.00;102518.84;5061190;28;20033;-69
2023/09/30 07:54:23;;;;;;;27.08;11.68;;;;;;;13.58;100.00;102512.22;5054006;28;20372;-69
2023/09/30 07:56:49;;;;;;;28.27;12.70;;;;;;;13.63;100.00;102512.81;5061600;28;20388;-69
2023/09/30 07:59:15;;;;;;;27.77;10.80;;;;;;;13.69;100.00;102517.00;5052991;28;20031;-70
2023/09/30 08:01:41;;;;;;;26.70;12.00;;;;;;;13.75;100.00;102518.47;5047662;28;20064;-69
2023/09/30 08:04:06;;;;;;;28.00;11.30;;;;;;;13.80;100.00;102516.34;5049425;28;20495;-71
2023/09/30 08:06:31;;;;;;;25.63;10.63;;;;;;;13.87;100.00;102516.84;5048620;28;20073;-69
2023/09/30 08:08:57;;;;;;;24.45;10.20;;;;;;;13.91;100.00;102510.25;5043485;28;20021;-72
2023/09/30 08:11:22;;;;;;;28.92;11.73;;;;;;;13.94;100.00;102510.09;5045470;28;20193;-71
2023/09/30 08:13:48;;;;;;;29.58;11.23;;;;;;;13.97;100.00;102508.06;5042964;28;20532;-72
2023/09/30 08:16:16;;;;;;;26.65;11.50;;;;;;;14.03;100.00;102505.97;5041263;28;20025;-71
2023/09/30 08:18:41;;;;;;;29.17;11.98;;;;;;;14.06;100.00;102503.06;5036117;28;20028;-71
2023/09/30 08:21:12;;;;;;;27.98;11.73;;;;;;;14.09;100.00;102500.19;5038937;28;20025;-73
2023/09/30 08:23:38;;;;;;;25.95;9.85;;;;;;;14.13;100.00;102501.72;5040440;28;20021;-72
2023/09/30 08:26:07;;;;;;;27.88;12.07;;;;;;;14.17;100.00;102497.84;5038859;28;20033;-72
2023/09/30 08:28:32;;;;;;;29.33;12.27;;;;;;;14.18;100.00;102502.31;5043526;28;20038;-69
2023/09/30 08:31:05;;;;;;;30.55;11.85;;;;;;;14.18;100.00;102499.59;5040241;28;20040;-70
2023/09/30 08:33:31;;;;;;;27.42;12.30;;;;;;;14.20;100.00;102492.25;5036768;28;20055;-71
2023/09/30 08:36:01;;;;;;;26.20;11.10;;;;;;;14.22;100.00;102490.34;5036127;28;20037;-71
2023/09/30 08:38:26;;;;;;;25.73;11.52;;;;;;;14.27;100.00;102490.03;5041119;28;20037;-72
2023/09/30 08:40:52;;;;;;;26.77;11.80;;;;;;;14.29;100.00;102490.78;5038814;28;20336;-72
2023/09/30 08:43:24;;;;;;;24.67;12.15;;;;;;;14.30;100.00;102488.00;5037459;28;20051;-71
2023/09/30 08:45:53;;;;;;;27.98;12.05;;;;;;;14.33;100.00;102492.34;5038705;28;20032;-71
2023/09/30 08:48:20;;;;;;;27.08;13.05;;;;;;;14.35;100.00;102485.03;5036248;28;20041;-72
2023/09/30 08:50:49;;;;;;;29.73;12.75;;;;;;;14.40;100.00;102482.88;5034677;28;20053;-72
2023/09/30 08:53:16;;;;;;;30.75;12.50;;;;;;;14.42;100.00;102486.38;5039009;28;20032;-72
2023/09/30 08:55:44;;;;;;;28.63;11.55;;;;;;;14.47;100.00;102483.38;5051113;28;20025;-71
2023/09/30 08:58:11;;;;;;;29.83;12.23;;;;;;;14.52;100.00;102481.22;5055004;28;20021;-72
2023/09/30 09:00:38;;;;;;;23.45;11.52;;;;;;;14.58;100.00;102486.25;5052538;28;20025;-72
2023/09/30 09:03:04;;;;;;;25.08;11.80;;;;;;;14.62;100.00;102487.81;5048848;28;20021;-69
2023/09/30 09:05:29;;;;;;;27.60;11.10;;;;;;;14.64;100.00;102485.91;5042643;28;20464;-70
2023/09/30 09:07:55;;;;;;;30.52;12.30;;;;;;;14.68;100.00;102494.69;5043496;28;20034;-70
2023/09/30 09:10:20;;;;;;;25.67;11.02;;;;;;;14.73;100.00;102506.09;5061336;28;20096;-69
2023/09/30 09:12:56;;;;;;;28.42;13.77;;;;;;;14.78;100.00;102513.91;5061328;28;20086;-69
2023/09/30 09:15:25;;;;;;;24.02;11.10;;;;;;;14.81;100.00;102517.28;5058526;28;20024;-69
2023/09/30 09:17:51;;;;;;;26.43;10.97;;;;;;;14.85;100.00;102515.25;5057127;28;20025;-69
2023/09/30 09:20:22;;;;;;;22.13;9.90;;;;;;;14.88;100.00;102515.06;5058470;28;20052;-69
2023/09/30 09:22:55;;;;;;;26.10;11.20;;;;;;;14.93;100.00;102521.00;5059948;28;20052;-70
2023/09/30 09:25:24;;;;;;;24.00;10.10;;;;;;;14.99;100.00;102525.16;5059409;28;20067;-70
2023/09/30 09:27:53;;;;;;;25.55;11.23;;;;;;;15.02;100.00;102536.69;5056651;28;20073;-69
2023/09/30 09:30:23;;;;;;;26.80;10.18;;;;;;;15.08;100.00;102545.34;5058470;28;20183;-70
2023/09/30 09:33:04;;;;;;;26.70;10.13;;;;;;;15.14;100.00;102547.66;5059724;28;20485;-69
2023/09/30 09:35:32;;;;;;;24.95;9.52;;;;;;;15.18;100.00;102546.50;5054436;28;20021;-70
2023/09/30 09:38:03;;;;;;;23.70;11.40;;;;;;;15.24;100.00;102551.50;5055729;28;20481;-70
2023/09/30 09:40:36;;;;;;;31.50;12.68;;;;;;;15.27;100.00;102545.91;5054243;28;20063;-70
2023/09/30 09:43:04;;;;;;;28.70;11.85;;;;;;;15.32;100.00;102551.00;5059613;28;20432;-70
2023/09/30 09:45:35;;;;;;;28.40;10.80;;;;;;;15.36;100.00;102553.41;5059897;28;20055;-70
2023/09/30 09:48:01;;;;;;;27.52;11.88;;;;;;;15.42;100.00;102552.13;5055493;28;20037;-70
2023/09/30 09:50:26;;;;;;;25.83;11.68;;;;;;;15.45;100.00;102551.94;5054603;28;20092;-70
2023/09/30 09:52:55;;;;;;;25.15;11.05;;;;;;;15.52;100.00;102563.22;5060381;28;20039;-70
2023/09/30 09:55:23;;;;;;;22.90;11.20;;;;;;;15.53;100.00;102556.81;5051158;28;20029;-70
2023/09/30 09:57:49;;;;;;;26.65;11.35;;;;;;;15.57;100.00;102561.06;5062664;28;20017;-70
2023/09/30 10:00:25;;;;;;;24.65;10.43;;;;;;;15.61;100.00;102557.19;5061962;28;20056;-70
2023/09/30 10:02:51;;;;;;;26.10;11.48;;;;;;;15.65;100.00;102552.41;5062050;28;20037;-71
2023/09/30 10:05:19;;;;;;;23.10;10.25;;;;;;;15.70;100.00;102558.41;5064881;28;20024;-70
2023/09/30 10:07:51;;;;;;;27.25;11.73;;;;;;;15.72;100.00;102560.06;5063569;28;20112;-70
2023/09/30 10:10:19;;;;;;;27.23;10.63;;;;;;;15.77;100.00;102561.56;5060664;28;20068;-70
2023/09/30 10:12:45;;;;;;;25.50;10.88;;;;;;;15.81;100.00;102571.25;5061883;28;20119;-70
2023/09/30 10:15:26;;;;;;;23.52;9.85;;;;;;;15.84;100.00;102565.63;5041478;28;20528;-70
2023/09/30 10:18:06;;;;;;;24.15;9.48;;;;;;;15.86;100.00;102582.66;5057004;28;20039;-70
2023/09/30 10:20:34;;;;;;;26.65;10.85;;;;;;;15.88;100.00;102588.84;5059792;28;20033;-70
2023/09/30 10:23:17;;;;;;;22.05;8.77;;;;;;;15.92;100.00;102579.53;5053854;28;20078;-70
2023/09/30 10:25:47;;;;;;;25.08;10.00;;;;;;;15.93;100.00;102565.00;5053460;28;20091;-71
2023/09/30 10:28:35;;;;;;;25.23;11.00;;;;;;;15.98;100.00;102551.13;5061396;28;20098;-70
2023/09/30 10:31:18;;;;;;;23.47;9.40;;;;;;;15.98;100.00;102546.56;5056310;28;20097;-70
2023/09/30 10:34:02;;;;;;;23.67;9.00;;;;;;;16.00;100.00;102543.75;5059901;28;20081;-71
2023/09/30 10:36:39;;;;;;;20.30;8.18;;;;;;;16.01;100.00;102546.34;5061967;28;20025;-70
2023/09/30 10:39:08;;;;;;;22.65;8.35;;;;;;;16.00;100.00;102549.16;5062887;28;20069;-70
2023/09/30 10:41:40;;;;;;;20.73;7.40;;;;;;;15.98;100.00;102533.00;5063422;28;20392;-70
2023/09/30 10:44:32;;;;;;;21.80;7.40;;;;;;;15.98;100.00;102533.00;5059826;28;20037;-70
2023/09/30 10:46:59;;;;;;;19.65;6.10;;;;;;;15.96;100.00;102540.38;5051600;28;20106;-70
2023/09/30 10:49:28;;;;;;;18.42;6.97;;;;;;;15.97;100.00;102535.81;5061005;28;20127;-70
2023/09/30 10:51:57;;;;;;;21.60;7.05;;;;;;;15.96;100.00;102528.66;5063667;28;20033;-70
2023/09/30 10:54:28;;;;;;;19.05;6.68;;;;;;;15.96;100.00;102529.53;5062932;28;20080;-69
2023/09/30 10:56:54;;;;;;;18.75;6.05;;;;;;;15.96;100.00;102528.66;5061947;28;20105;-69
2023/09/30 10:59:23;;;;;;;20.08;6.05;;;;;;;15.97;100.00;102517.69;5057543;28;20086;-69
2023/09/30 11:01:49;;;;;;;18.10;6.65;;;;;;;15.98;100.00;102513.16;5057730;28;20313;-70
2023/09/30 11:04:15;;;;;;;20.15;5.20;;;;;;;16.01;100.00;102500.25;5060058;28;20074;-70